createdAt,value
2018-07-09T00:01:51.120Z,3.93
2018-07-09T00:04:25.532Z,3.00
2018-07-09T00:06:59.956Z,4.77
2018-07-09T00:09:34.560Z,5.03
2018-07-09T00:12:09.202Z,4.57
2018-07-09T00:14:43.805Z,5.20
2018-07-09T00:17:18.291Z,4.93
2018-07-09T00:19:52.768Z,4.83
2018-07-09T00:22:27.254Z,3.83
2018-07-09T00:25:01.702Z,5.33
2018-07-09T00:27:36.386Z,7.73
2018-07-09T00:30:11.001Z,4.00
2018-07-09T00:32:45.624Z,4.07
2018-07-09T00:35:20.234Z,4.87
2018-07-09T00:37:54.872Z,6.83
2018-07-09T00:40:29.460Z,6.87
2018-07-09T00:43:04.091Z,6.83
2018-07-09T00:45:38.674Z,5.47
2018-07-09T00:48:13.324Z,6.17
2018-07-09T00:50:47.832Z,4.90
2018-07-09T00:53:22.431Z,3.63
2018-07-09T00:55:57.044Z,5.60
2018-07-09T00:58:31.660Z,6.33
2018-07-09T01:01:06.238Z,6.17
2018-07-09T01:03:40.793Z,5.40
2018-07-09T01:06:15.417Z,9.13
2018-07-09T01:08:50.041Z,9.57
2018-07-09T01:11:36.135Z,7.40
2018-07-09T01:14:10.821Z,8.00
2018-07-09T01:16:45.424Z,7.93
2018-07-09T01:19:20.060Z,6.93
2018-07-09T01:21:54.496Z,5.90
2018-07-09T01:24:29.028Z,6.10
2018-07-09T01:27:03.636Z,5.10
2018-07-09T01:29:38.349Z,5.47
2018-07-09T01:32:13.096Z,4.47
2018-07-09T01:34:47.677Z,5.23
2018-07-09T01:37:22.112Z,4.53
2018-07-09T01:39:56.772Z,6.30
2018-07-09T01:42:31.289Z,5.83
2018-07-09T01:45:05.949Z,7.70
2018-07-09T01:47:40.577Z,8.33
2018-07-09T01:50:15.160Z,7.90
2018-07-09T01:52:49.806Z,7.60
2018-07-09T01:55:24.412Z,5.00
2018-07-09T01:57:59.120Z,7.30
2018-07-09T02:00:33.800Z,6.77
2018-07-09T02:03:08.533Z,6.80
2018-07-09T02:05:43.092Z,6.00
2018-07-09T02:08:17.433Z,7.13
2018-07-09T02:10:51.949Z,9.20
2018-07-09T02:13:26.571Z,9.40
2018-07-09T02:16:01.227Z,6.33
2018-07-09T02:18:35.724Z,4.97
2018-07-09T02:21:10.243Z,5.57
2018-07-09T02:23:44.809Z,8.77
2018-07-09T02:26:19.260Z,11.13
2018-07-09T02:28:53.853Z,9.53
2018-07-09T02:31:28.289Z,5.50
2018-07-09T02:34:03.009Z,6.47
2018-07-09T02:36:37.585Z,6.57
2018-07-09T02:39:12.270Z,4.17
2018-07-09T02:41:46.810Z,8.43
2018-07-09T02:44:21.148Z,5.63
2018-07-09T02:46:55.832Z,10.77
2018-07-09T02:49:30.573Z,4.00
2018-07-09T02:52:05.172Z,7.37
2018-07-09T02:54:39.837Z,8.13
2018-07-09T02:57:14.505Z,5.23
2018-07-09T02:59:49.152Z,10.40
2018-07-09T03:02:23.787Z,11.13
2018-07-09T03:04:58.464Z,7.33
2018-07-09T03:07:32.941Z,6.43
2018-07-09T03:10:07.789Z,9.73
2018-07-09T03:12:42.207Z,5.00
2018-07-09T03:15:16.744Z,6.47
2018-07-09T03:17:51.304Z,6.97
2018-07-09T03:20:25.887Z,5.80
2018-07-09T03:23:00.488Z,6.97
2018-07-09T03:25:35.027Z,7.67
2018-07-09T03:28:09.781Z,6.80
2018-07-09T03:30:44.206Z,8.20
2018-07-09T03:33:18.642Z,9.53
2018-07-09T03:35:53.217Z,10.30
2018-07-09T03:38:27.824Z,10.53
2018-07-09T03:41:02.362Z,9.40
2018-07-09T03:43:36.987Z,7.30
2018-07-09T03:46:11.688Z,7.30
2018-07-09T03:48:46.140Z,7.87
2018-07-09T03:51:20.696Z,9.27
2018-07-09T03:53:55.254Z,12.70
2018-07-09T03:56:29.838Z,5.70
2018-07-09T03:59:04.527Z,9.33
2018-07-09T04:01:39.102Z,8.83
2018-07-09T04:04:13.808Z,6.57
2018-07-09T04:06:48.465Z,9.60
2018-07-09T04:09:23.127Z,8.97
2018-07-09T04:11:57.790Z,8.63
2018-07-09T04:14:32.465Z,6.30
2018-07-09T04:17:06.958Z,9.33
2018-07-09T04:19:41.597Z,5.80
2018-07-09T04:22:16.188Z,6.13
2018-07-09T04:24:50.826Z,11.43
2018-07-09T04:27:25.422Z,11.77
2018-07-09T04:29:59.937Z,7.77
2018-07-09T04:32:34.472Z,8.93
2018-07-09T04:35:09.084Z,7.57
2018-07-09T04:37:43.705Z,8.17
2018-07-09T04:40:18.288Z,9.63
2018-07-09T04:42:52.960Z,8.17
2018-07-09T04:45:27.457Z,9.23
2018-07-09T04:48:01.964Z,12.27
2018-07-09T04:50:36.941Z,10.13
2018-07-09T04:53:11.508Z,7.33
2018-07-09T04:55:46.011Z,8.63
2018-07-09T04:58:20.530Z,9.20
2018-07-09T05:00:55.168Z,8.43
2018-07-09T05:03:29.713Z,10.37
2018-07-09T05:06:04.300Z,6.07
2018-07-09T05:08:38.909Z,9.50
2018-07-09T05:11:13.446Z,6.93
2018-07-09T05:13:48.020Z,7.17
2018-07-09T05:16:22.456Z,6.53
2018-07-09T05:18:57.092Z,8.23
2018-07-09T05:21:31.709Z,10.57
2018-07-09T05:24:06.232Z,10.20
2018-07-09T05:26:40.860Z,5.93
2018-07-09T05:29:15.437Z,9.03
2018-07-09T05:31:50.236Z,5.67
2018-07-09T05:34:24.819Z,5.37
2018-07-09T05:36:59.343Z,5.63
2018-07-09T05:39:33.834Z,11.40
2018-07-09T05:42:08.368Z,12.07
2018-07-09T05:44:43.013Z,5.77
2018-07-09T05:47:17.460Z,7.63
2018-07-09T05:49:52.264Z,5.10
2018-07-09T05:52:26.931Z,7.30
2018-07-09T05:55:01.305Z,9.97
2018-07-09T05:57:35.808Z,7.83
2018-07-09T06:00:10.473Z,5.13
2018-07-09T06:02:45.157Z,5.57
2018-07-09T06:05:19.809Z,4.30
2018-07-09T06:07:54.444Z,6.83
2018-07-09T06:10:29.045Z,9.53
2018-07-09T06:13:03.642Z,6.73
2018-07-09T06:15:38.036Z,6.97
2018-07-09T06:18:12.400Z,4.93
2018-07-09T06:20:46.973Z,5.77
2018-07-09T06:23:21.828Z,5.97
2018-07-09T06:25:56.407Z,7.27
2018-07-09T06:28:30.968Z,6.50
2018-07-09T06:31:05.668Z,5.63
2018-07-09T06:33:40.054Z,4.77
2018-07-09T06:36:14.796Z,4.50
2018-07-09T06:38:49.273Z,5.50
2018-07-09T06:41:23.713Z,5.63
2018-07-09T06:43:58.325Z,3.83
2018-07-09T06:46:32.893Z,2.40
2018-07-09T06:49:07.564Z,2.33
2018-07-09T06:51:42.113Z,3.13
2018-07-09T06:54:16.747Z,2.73
2018-07-09T06:56:51.316Z,5.00
2018-07-09T06:59:25.732Z,3.60
2018-07-09T07:02:00.280Z,2.73
2018-07-09T07:04:34.736Z,3.33
2018-07-09T07:07:09.169Z,3.50
2018-07-09T07:09:43.598Z,2.40
2018-07-09T07:12:18.216Z,2.87
2018-07-09T07:14:52.641Z,3.17
2018-07-09T07:17:27.151Z,2.93
2018-07-09T07:20:01.861Z,2.97
2018-07-09T07:22:36.496Z,4.40
2018-07-09T07:25:11.064Z,3.13
2018-07-09T07:27:45.436Z,5.83
2018-07-09T07:30:19.871Z,3.17
2018-07-09T07:32:54.412Z,2.97
2018-07-09T07:35:28.835Z,7.13
2018-07-09T07:38:03.516Z,4.00
2018-07-09T07:40:38.024Z,3.47
2018-07-09T07:43:12.508Z,2.40
2018-07-09T07:45:46.950Z,2.37
2018-07-09T07:48:21.440Z,3.60
2018-07-09T07:50:55.829Z,3.27
2018-07-09T07:53:30.301Z,3.17
2018-07-09T07:56:04.748Z,2.90
2018-07-09T07:58:39.211Z,4.20
2018-07-09T08:01:13.662Z,2.23
2018-07-09T08:03:48.272Z,3.03
2018-07-09T08:06:22.740Z,6.13
2018-07-09T08:08:57.060Z,3.33
2018-07-09T08:11:47.723Z,1.87
2018-07-09T08:14:05.816Z,2.97
2018-07-09T08:16:40.180Z,3.17
2018-07-09T08:19:14.898Z,3.97
2018-07-09T08:21:49.240Z,3.40
2018-07-09T08:24:23.674Z,5.23
2018-07-09T08:26:58.236Z,6.83
2018-07-09T08:29:32.851Z,4.27
2018-07-09T08:32:07.228Z,3.27
2018-07-09T08:34:41.621Z,4.53
2018-07-09T08:37:16.030Z,4.23
2018-07-09T08:39:50.292Z,5.70
2018-07-09T08:42:24.687Z,2.93
2018-07-09T08:44:59.095Z,3.00
2018-07-09T08:47:33.533Z,4.13
2018-07-09T08:50:08.075Z,5.47
2018-07-09T08:52:42.465Z,4.10
2018-07-09T08:55:16.796Z,3.53
2018-07-09T08:57:51.212Z,2.87
2018-07-09T09:00:25.471Z,3.27
2018-07-09T09:02:59.827Z,2.70
2018-07-09T09:05:34.287Z,4.63
2018-07-09T09:08:08.716Z,3.27
2018-07-09T09:10:43.100Z,4.33
2018-07-09T09:13:17.645Z,3.43
2018-07-09T09:15:52.044Z,3.43
2018-07-09T09:18:26.272Z,3.47
2018-07-09T09:21:00.732Z,3.93
2018-07-09T09:23:35.111Z,4.63
2018-07-09T09:26:09.523Z,3.60
2018-07-09T09:28:43.971Z,2.63
2018-07-09T09:31:18.406Z,2.70
2018-07-09T09:33:52.743Z,3.80
2018-07-09T09:36:27.204Z,3.00
2018-07-09T09:39:01.575Z,3.63
2018-07-09T09:41:36.088Z,4.60
2018-07-09T09:44:10.927Z,4.83
2018-07-09T09:46:45.151Z,5.37
2018-07-09T09:49:19.637Z,3.43
2018-07-09T09:51:54.063Z,3.17
2018-07-09T09:54:28.454Z,5.17
2018-07-09T09:57:03.032Z,4.43
2018-07-09T09:59:37.515Z,3.97
2018-07-09T10:02:11.840Z,3.10
2018-07-09T10:04:46.065Z,3.90
2018-07-09T10:07:20.469Z,6.43
2018-07-09T10:09:54.704Z,3.73
2018-07-09T10:12:29.105Z,2.07
2018-07-09T10:15:03.535Z,2.83
2018-07-09T10:17:37.951Z,1.90
2018-07-09T10:20:12.335Z,2.50
2018-07-09T10:22:46.809Z,3.20
2018-07-09T10:25:21.232Z,2.07
2018-07-09T10:27:55.627Z,2.10
2018-07-09T10:30:30.068Z,2.57
2018-07-09T10:33:04.380Z,2.40
2018-07-09T10:35:38.856Z,2.27
2018-07-09T10:38:13.380Z,3.03
2018-07-09T10:40:47.904Z,3.20
2018-07-09T10:43:22.432Z,3.80
2018-07-09T10:45:56.776Z,3.70
2018-07-09T10:48:31.219Z,6.23
2018-07-09T10:51:05.855Z,2.53
2018-07-09T10:53:40.379Z,2.60
2018-07-09T10:56:14.754Z,3.07
2018-07-09T10:58:49.280Z,4.93
2018-07-09T11:01:23.773Z,5.10
2018-07-09T11:03:58.171Z,2.63
2018-07-09T11:06:32.559Z,2.03
2018-07-09T11:09:07.635Z,3.70
2018-07-09T11:11:42.140Z,3.00
2018-07-09T11:14:16.580Z,4.73
2018-07-09T11:16:50.969Z,3.90
2018-07-09T11:19:25.413Z,6.57
2018-07-09T11:21:59.841Z,5.03
2018-07-09T11:24:34.533Z,2.87
2018-07-09T11:27:08.961Z,3.80
2018-07-09T11:29:43.340Z,4.50
2018-07-09T11:32:17.734Z,5.97
2018-07-09T11:34:52.240Z,8.47
2018-07-09T11:37:26.591Z,4.13
2018-07-09T11:40:01.209Z,7.50
2018-07-09T11:42:35.816Z,5.70
2018-07-09T11:45:10.308Z,3.47
2018-07-09T11:47:45.060Z,4.67
2018-07-09T11:50:19.599Z,4.63
2018-07-09T11:52:54.261Z,5.87
2018-07-09T11:55:28.800Z,5.43
2018-07-09T11:58:03.332Z,6.33
2018-07-09T12:00:37.896Z,4.60
2018-07-09T12:03:12.457Z,8.03
2018-07-09T12:05:47.100Z,6.30
2018-07-09T12:08:21.588Z,5.93
2018-07-09T12:10:56.000Z,6.33
2018-07-09T12:13:30.612Z,6.63
2018-07-09T12:16:05.388Z,5.17
2018-07-09T12:18:39.781Z,5.47
2018-07-09T12:21:14.480Z,6.70
2018-07-09T12:23:48.889Z,4.90
2018-07-09T12:26:23.348Z,5.03
2018-07-09T12:28:57.853Z,5.50
2018-07-09T12:31:32.149Z,4.93
2018-07-09T12:34:06.684Z,6.63
2018-07-09T12:36:41.116Z,5.43
2018-07-09T12:39:15.468Z,4.57
2018-07-09T12:41:49.830Z,6.80
2018-07-09T12:44:24.460Z,8.03
2018-07-09T12:46:58.884Z,4.57
2018-07-09T12:49:33.368Z,5.30
2018-07-09T12:52:07.904Z,4.07
2018-07-09T12:54:42.394Z,3.97
2018-07-09T12:57:16.971Z,3.33
2018-07-09T12:59:51.534Z,4.33
2018-07-09T13:02:26.023Z,6.33
2018-07-09T13:05:00.682Z,4.60
2018-07-09T13:07:35.788Z,5.10
2018-07-09T13:10:10.272Z,4.87
2018-07-09T13:12:44.861Z,4.23
2018-07-09T13:15:19.338Z,6.33
2018-07-09T13:17:53.784Z,4.97
2018-07-09T13:20:28.111Z,3.67
2018-07-09T13:23:02.663Z,4.43
2018-07-09T13:25:37.151Z,3.87
2018-07-09T13:28:11.708Z,2.83
2018-07-09T13:30:46.381Z,5.30
2018-07-09T13:33:21.068Z,9.43
2018-07-09T13:35:55.624Z,5.57
2018-07-09T13:38:30.747Z,3.13
2018-07-09T13:41:05.333Z,3.83
2018-07-09T13:43:39.833Z,7.13
2018-07-09T13:46:14.437Z,14.90
2018-07-09T13:48:48.973Z,4.47
2018-07-09T13:51:23.529Z,5.33
2018-07-09T13:53:57.981Z,3.73
2018-07-09T13:56:32.493Z,6.07
2018-07-09T13:59:07.178Z,6.07
2018-07-09T14:01:41.616Z,4.93
2018-07-09T14:04:16.073Z,2.60
2018-07-09T14:06:50.444Z,4.60
2018-07-09T14:09:24.918Z,6.47
2018-07-09T14:11:59.508Z,7.67
2018-07-09T14:14:34.291Z,3.70
2018-07-09T14:17:08.857Z,6.13
2018-07-09T14:20:22.347Z,4.80
2018-07-09T14:22:57.023Z,5.97
2018-07-09T14:25:31.663Z,4.83
2018-07-09T14:28:06.220Z,6.00
2018-07-09T14:30:41.060Z,3.80
2018-07-09T14:33:15.440Z,4.97
2018-07-09T14:35:49.851Z,3.80
2018-07-09T14:38:24.369Z,3.63
2018-07-09T14:40:59.028Z,4.90
2018-07-09T14:43:33.458Z,4.17
2018-07-09T14:46:08.072Z,6.30
2018-07-09T14:48:42.507Z,4.73
2018-07-09T14:51:16.912Z,6.83
2018-07-09T14:53:51.429Z,6.00
2018-07-09T14:56:25.900Z,3.37
2018-07-09T14:59:00.416Z,3.87
2018-07-09T15:01:34.951Z,2.83
2018-07-09T15:04:09.468Z,3.23
2018-07-09T15:06:43.852Z,4.93
2018-07-09T15:09:18.455Z,6.10
2018-07-09T15:11:52.999Z,4.83
2018-07-09T15:14:27.495Z,4.43
2018-07-09T15:17:02.197Z,3.83
2018-07-09T15:19:36.920Z,2.67
2018-07-09T15:22:11.403Z,6.47
2018-07-09T15:24:45.936Z,5.40
2018-07-09T15:27:20.457Z,5.00
2018-07-09T15:29:55.053Z,7.33
2018-07-09T15:32:31.404Z,3.83
2018-07-09T15:35:05.876Z,5.63
2018-07-09T15:37:40.553Z,4.37
2018-07-09T15:40:15.094Z,4.77
2018-07-09T15:42:49.580Z,4.03
2018-07-09T15:45:24.048Z,3.00
2018-07-09T15:47:58.700Z,5.10
2018-07-09T15:50:33.244Z,10.50
2018-07-09T15:53:07.816Z,5.50
2018-07-09T15:55:42.513Z,4.13
2018-07-09T15:58:17.101Z,3.40
2018-07-09T16:00:51.594Z,6.50
2018-07-09T16:03:26.869Z,3.90
2018-07-09T16:06:01.401Z,5.37
2018-07-09T16:08:35.984Z,4.83
2018-07-09T16:11:10.701Z,4.57
2018-07-09T16:13:45.035Z,6.22
2018-07-09T16:16:20.156Z,2.93
2018-07-09T16:18:54.605Z,6.07
2018-07-09T16:21:29.371Z,4.10
2018-07-09T16:24:04.033Z,3.83
2018-07-09T16:26:38.752Z,2.60
2018-07-09T16:29:13.422Z,4.27
2018-07-09T16:31:47.805Z,2.10
2018-07-09T16:34:22.530Z,3.03
2018-07-09T16:36:57.072Z,3.10
2018-07-09T16:39:31.499Z,2.37
2018-07-09T16:42:05.872Z,2.30
2018-07-09T16:44:40.284Z,2.50
2018-07-09T16:47:14.692Z,2.23
2018-07-09T16:49:49.104Z,2.77
2018-07-09T16:52:23.627Z,3.03
2018-07-09T16:54:58.304Z,2.50
2018-07-09T16:57:32.724Z,1.93
2018-07-09T17:00:07.397Z,2.17
2018-07-09T17:02:41.807Z,1.87
2018-07-09T17:05:16.284Z,1.90
2018-07-09T17:07:50.860Z,1.70
2018-07-09T17:10:25.413Z,1.83
2018-07-09T17:12:59.996Z,3.83
2018-07-09T17:15:34.772Z,1.77
2018-07-09T17:18:09.313Z,2.37
2018-07-09T17:20:43.980Z,2.43
2018-07-09T17:23:18.556Z,3.10
2018-07-09T17:25:53.034Z,3.90
2018-07-09T17:28:27.722Z,2.20
2018-07-09T17:31:02.286Z,4.37
2018-07-09T17:33:36.805Z,4.47
2018-07-09T17:36:11.499Z,4.20
2018-07-09T17:38:46.007Z,4.07
2018-07-09T17:41:20.429Z,2.10
2018-07-09T17:43:55.028Z,4.43
2018-07-09T17:46:29.604Z,3.13
2018-07-09T17:49:04.161Z,5.33
2018-07-09T17:51:38.660Z,4.57
2018-07-09T17:54:13.195Z,2.70
2018-07-09T17:56:47.762Z,2.27
2018-07-09T17:59:22.542Z,2.00
2018-07-09T18:01:57.038Z,3.27
2018-07-09T18:04:31.549Z,3.93
2018-07-09T18:07:06.336Z,3.43
2018-07-09T18:09:41.004Z,5.20
2018-07-09T18:12:15.699Z,2.70
2018-07-09T18:14:50.335Z,5.23
2018-07-09T18:17:25.061Z,2.53
2018-07-09T18:19:59.715Z,2.73
2018-07-09T18:22:34.159Z,3.93
2018-07-09T18:25:09.220Z,4.20
2018-07-09T18:27:43.956Z,7.50
2018-07-09T18:30:18.532Z,3.93
2018-07-09T18:32:53.054Z,6.03
2018-07-09T18:35:27.651Z,3.67
2018-07-09T18:38:02.220Z,2.30
2018-07-09T18:40:36.891Z,3.47
2018-07-09T18:43:11.324Z,2.60
2018-07-09T18:45:45.772Z,6.23
2018-07-09T18:48:20.388Z,5.70
2018-07-09T18:50:55.223Z,4.07
2018-07-09T18:53:29.816Z,2.50
2018-07-09T18:56:04.568Z,3.27
2018-07-09T18:58:39.141Z,3.07
2018-07-09T19:01:13.631Z,4.20
2018-07-09T19:03:48.267Z,3.13
2018-07-09T19:06:32.293Z,3.87
2018-07-09T19:09:06.817Z,4.13
2018-07-09T19:11:41.968Z,4.90
2018-07-09T19:14:17.112Z,4.23
2018-07-09T19:18:03.245Z,3.47
2018-07-09T19:21:51.013Z,6.13
2018-07-09T19:24:24.411Z,5.07
2018-07-09T19:26:58.625Z,4.93
2018-07-09T19:29:32.034Z,4.03
2018-07-09T19:32:05.421Z,3.20
2018-07-09T19:34:38.921Z,4.27
2018-07-09T19:37:12.572Z,5.67
2018-07-09T19:39:45.871Z,5.70
2018-07-09T19:42:19.265Z,6.83
2018-07-09T19:44:52.792Z,5.57
2018-07-09T19:47:26.120Z,5.53
2018-07-09T19:49:59.560Z,4.80
2018-07-09T19:52:33.020Z,6.30
2018-07-09T19:55:06.437Z,7.87
2018-07-09T19:57:39.708Z,5.43
2018-07-09T20:00:13.041Z,4.60
2018-07-09T20:02:46.561Z,6.60
2018-07-09T20:05:20.058Z,8.90
2018-07-09T20:07:53.577Z,7.90
2018-07-09T20:10:32.308Z,7.00
2018-07-09T20:13:11.079Z,7.90
2018-07-09T20:15:49.820Z,9.17
2018-07-09T20:18:23.360Z,5.97
2018-07-09T20:20:56.701Z,5.60
2018-07-09T20:23:30.113Z,7.70
2018-07-09T20:26:03.574Z,7.13
2018-07-09T20:28:37.130Z,7.83
2018-07-09T20:31:10.525Z,6.03
2018-07-09T20:33:43.948Z,5.60
2018-07-09T20:36:18.013Z,7.43
2018-07-09T20:38:51.416Z,9.63
2018-07-09T20:41:24.993Z,6.27
2018-07-09T20:43:58.511Z,6.60
2018-07-09T20:46:32.220Z,7.40
2018-07-09T20:49:05.552Z,10.53
2018-07-09T20:51:39.083Z,7.03
2018-07-09T20:54:12.568Z,9.23
2018-07-09T20:56:45.893Z,11.93
2018-07-09T20:59:19.380Z,10.77
2018-07-09T21:01:52.920Z,8.20
2018-07-09T21:04:26.311Z,8.20
2018-07-09T21:07:00.848Z,6.53
2018-07-09T21:09:34.522Z,8.13
2018-07-09T21:12:09.304Z,6.83
2018-07-09T21:14:42.848Z,7.97
2018-07-09T21:17:16.216Z,8.30
2018-07-09T21:19:49.696Z,9.50
2018-07-09T21:22:23.199Z,10.47
2018-07-09T21:24:56.637Z,10.10
2018-07-09T21:27:29.972Z,7.33
2018-07-09T21:30:03.336Z,9.47
2018-07-09T21:32:37.076Z,8.73
2018-07-09T21:35:10.452Z,7.00
2018-07-09T21:37:44.098Z,10.50
2018-07-09T21:40:17.472Z,13.50
2018-07-09T21:42:51.079Z,12.83
2018-07-09T21:45:24.542Z,11.53
2018-07-09T21:48:10.210Z,8.57
2018-07-09T21:50:31.355Z,9.07
2018-07-09T21:53:05.023Z,8.90
2018-07-09T21:55:38.460Z,10.40
2018-07-09T21:58:11.780Z,8.57
2018-07-09T22:00:45.232Z,8.70
2018-07-09T22:03:18.732Z,7.87
2018-07-09T22:05:52.189Z,10.27
2018-07-09T22:08:25.657Z,8.40
2018-07-09T22:10:59.086Z,6.60
2018-07-09T22:13:32.433Z,5.80
2018-07-09T22:16:05.785Z,11.37
2018-07-09T22:18:39.180Z,7.47
2018-07-09T22:21:12.640Z,8.13
2018-07-09T22:23:46.096Z,8.10
2018-07-09T22:26:19.612Z,8.87
2018-07-09T22:28:52.954Z,8.70
2018-07-09T22:31:27.439Z,9.77
2018-07-09T22:34:02.048Z,6.60
2018-07-09T22:36:36.606Z,7.43
2018-07-09T22:39:11.081Z,10.83
2018-07-09T22:41:45.721Z,12.53
2018-07-09T22:44:21.466Z,7.63
2018-07-09T22:46:55.907Z,12.07
2018-07-09T22:49:30.565Z,9.97
2018-07-09T22:52:05.137Z,7.10
2018-07-09T22:54:39.870Z,9.00
2018-07-09T22:57:14.389Z,13.47
2018-07-09T22:59:48.880Z,10.00
2018-07-09T23:02:24.238Z,13.03
2018-07-09T23:04:58.837Z,9.27
2018-07-09T23:07:36.717Z,8.93
2018-07-09T23:10:22.595Z,7.90
2018-07-09T23:13:25.352Z,5.10
2018-07-09T23:17:42.313Z,8.83
2018-07-09T23:20:27.754Z,11.07
2018-07-09T23:23:01.124Z,7.27
2018-07-09T23:25:34.582Z,8.23
2018-07-09T23:28:08.041Z,6.53
2018-07-09T23:30:41.437Z,6.27
2018-07-09T23:33:14.959Z,6.40
2018-07-09T23:35:48.415Z,9.50
2018-07-09T23:38:21.855Z,9.00
2018-07-09T23:40:55.124Z,6.23
2018-07-09T23:43:28.524Z,6.10
2018-07-09T23:46:01.992Z,9.67
2018-07-09T23:48:35.489Z,7.67
2018-07-09T23:51:08.962Z,6.83
2018-07-09T23:53:42.324Z,9.17
2018-07-09T23:58:30.750Z,10.00
